Time;durP1;ratioP1;P1;durP2;ratioP2;P2;SDS_P1;SDS_P2;PMS_P1;PMS_P2;Temp;Humidity;BMP_temperature;BMP_pressure;BME280_temperature;BME280_humidity;BME280_pressure;Samples;Min_cycle;Max_cycle;Signal;HPM_P1;HPM_P2
2023/03/03 00:00:12;;;;;;;3.30;3.08;;;;;;;3.88;61.62;101671.84;5130963;28;20035;-80
2023/03/03 00:02:42;;;;;;;1.38;1.30;;;;;;;3.88;61.52;101674.44;5154541;28;20084;-83
2023/03/03 00:05:14;;;;;;;3.53;3.03;;;;;;;3.77;62.27;101674.25;5131076;28;20034;-80
2023/03/03 00:07:45;;;;;;;1.60;1.52;;;;;;;3.66;62.80;101676.69;5135584;28;20465;-82
2023/03/03 00:10:15;;;;;;;5.00;2.67;;;;;;;3.81;62.24;101677.78;5135184;28;20087;-80
2023/03/03 00:12:48;;;;;;;3.10;2.90;;;;;;;3.83;61.39;101674.34;5156027;28;20458;-81
2023/03/03 00:15:24;;;;;;;4.13;3.72;;;;;;;3.77;61.68;101680.31;5137978;28;20360;-81
2023/03/03 00:17:54;;;;;;;0.93;0.93;;;;;;;3.80;61.11;101683.81;5166735;28;20027;-81
2023/03/03 00:20:36;;;;;;;2.88;2.67;;;;;;;3.70;62.60;101681.06;5151280;28;20043;-81
2023/03/03 00:23:23;;;;;;;0.80;0.77;;;;;;;3.67;62.14;101673.25;5158313;28;20026;-81
2023/03/03 00:25:53;;;;;;;2.28;2.17;;;;;;;3.81;60.81;101675.19;5155790;28;20043;-83
2023/03/03 00:28:26;;;;;;;2.30;2.20;;;;;;;3.36;64.21;101677.03;5146220;28;20029;-83
2023/03/03 00:31:02;;;;;;;3.67;3.38;;;;;;;3.58;61.43;101681.72;5148233;28;20034;-82
2023/03/03 00:33:41;;;;;;;2.15;2.03;;;;;;;3.54;61.71;101676.47;5151997;28;20507;-80
2023/03/03 00:36:15;;;;;;;6.10;2.83;;;;;;;3.57;61.31;101681.72;5151537;28;20126;-81
2023/03/03 00:38:47;;;;;;;1.65;1.60;;;;;;;3.50;62.95;101692.84;5134331;28;20444;-80
2023/03/03 00:41:26;;;;;;;1.58;1.50;;;;;;;3.44;63.03;101694.47;5154341;28;20034;-80
2023/03/03 00:43:57;;;;;;;1.33;1.33;;;;;;;3.52;61.44;101697.19;5137355;28;20023;-80
2023/03/03 00:46:29;;;;;;;2.35;2.25;;;;;;;3.60;62.04;101699.91;5149599;28;20763;-81
2023/03/03 00:49:00;;;;;;;3.45;3.10;;;;;;;3.52;62.51;101701.50;5129393;28;20023;-82
2023/03/03 00:51:34;;;;;;;3.45;2.92;;;;;;;3.51;61.53;101697.19;5152073;28;20030;-81
2023/03/03 00:54:04;;;;;;;4.18;3.85;;;;;;;3.36;63.15;101701.22;5139754;28;20033;-82
2023/03/03 00:56:35;;;;;;;1.27;1.27;;;;;;;3.17;64.34;101704.34;5135227;28;20030;-81
2023/03/03 00:59:06;;;;;;;6.78;4.07;;;;;;;3.28;63.32;101705.41;5153489;28;20027;-81
2023/03/03 01:01:36;;;;;;;5.10;3.85;;;;;;;3.27;62.46;101704.53;5131115;28;20045;-82
2023/03/03 01:04:07;;;;;;;2.33;2.22;;;;;;;3.42;62.15;101714.34;5139395;28;20035;-82
2023/03/03 01:06:37;;;;;;;2.65;2.47;;;;;;;3.27;63.09;101709.72;5134370;28;20134;-80
2023/03/03 01:09:08;;;;;;;7.55;3.30;;;;;;;2.97;66.15;101710.00;5134718;28;20390;-80
2023/03/03 01:11:38;;;;;;;2.80;2.60;;;;;;;2.95;66.47;101706.50;5149643;28;20038;-81
2023/03/03 01:14:09;;;;;;;3.40;3.20;;;;;;;2.98;66.35;101711.75;5166667;28;20031;-79
2023/03/03 01:16:40;;;;;;;2.00;1.90;;;;;;;2.92;66.22;101709.03;5128038;28;20441;-81
2023/03/03 01:19:11;;;;;;;2.38;2.17;;;;;;;2.74;68.21;101715.59;5156416;28;20498;-81
2023/03/03 01:21:42;;;;;;;3.67;3.45;;;;;;;2.80;67.73;101718.31;5140317;28;20047;-82
2023/03/03 01:24:13;;;;;;;2.65;2.25;;;;;;;2.94;67.33;101717.69;5137347;28;20022;-80
2023/03/03 01:26:43;;;;;;;6.10;4.00;;;;;;;2.90;66.28;101719.34;5151063;28;20648;-79
2023/03/03 01:29:14;;;;;;;2.88;2.70;;;;;;;2.49;70.32;101716.75;5153142;28;20552;-81
2023/03/03 01:31:45;;;;;;;2.00;1.90;;;;;;;2.79;67.81;101711.38;5134917;28;20069;-80
2023/03/03 01:34:15;;;;;;;1.88;1.77;;;;;;;2.77;68.29;101714.78;5142688;28;20046;-82
2023/03/03 01:36:45;;;;;;;3.03;2.85;;;;;;;2.43;70.66;101717.50;5128347;28;20035;-81
2023/03/03 01:39:16;;;;;;;1.95;1.85;;;;;;;2.44;70.59;101714.06;5155573;28;20113;-82
2023/03/03 01:41:47;;;;;;;6.28;5.20;;;;;;;2.32;71.20;101711.19;5151190;28;20575;-82
2023/03/03 01:44:17;;;;;;;4.63;4.30;;;;;;;2.69;69.31;101722.38;5152968;28;20113;-80
2023/03/03 01:46:57;;;;;;;1.65;1.55;;;;;;;2.34;70.97;101722.47;5150775;28;20744;-82
2023/03/03 01:49:35;;;;;;;2.08;1.98;;;;;;;2.42;70.88;101722.63;5132718;28;20030;-82
2023/03/03 01:52:20;;;;;;;3.42;3.20;;;;;;;2.09;73.30;101710.66;5171185;28;20039;-80
2023/03/03 01:54:56;;;;;;;3.53;3.33;;;;;;;2.08;73.19;101714.97;5171829;28;20038;-82
2023/03/03 01:57:32;;;;;;;2.63;2.40;;;;;;;2.48;69.45;101709.84;5177535;28;20038;-80
2023/03/03 02:00:04;;;;;;;2.67;2.47;;;;;;;2.51;69.46;101715.97;5174268;28;20035;-80
2023/03/03 02:02:35;;;;;;;3.88;2.97;;;;;;;2.07;74.04;101717.53;5134945;28;20022;-81
2023/03/03 02:05:06;;;;;;;4.45;3.03;;;;;;;2.19;72.74;101723.84;5155627;28;20026;-80
2023/03/03 02:07:37;;;;;;;1.85;1.75;;;;;;;1.94;74.15;101727.56;5136517;28;20049;-80
2023/03/03 02:10:12;;;;;;;8.52;3.17;;;;;;;2.32;70.86;101718.97;5138930;28;20038;-82
2023/03/03 02:12:50;;;;;;;2.47;2.33;;;;;;;2.30;71.40;101724.13;5164256;28;20018;-81
2023/03/03 02:15:34;;;;;;;4.97;4.15;;;;;;;2.42;70.30;101717.47;5125540;28;20134;-80
2023/03/03 02:18:10;;;;;;;2.83;2.65;;;;;;;2.45;70.14;101710.63;5153731;28;20023;-82
2023/03/03 02:21:08;;;;;;;4.05;3.65;;;;;;;2.49;70.21;101715.06;5152661;28;20038;-82
2023/03/03 02:23:56;;;;;;;2.63;2.47;;;;;;;2.48;71.14;101705.53;5143411;28;20030;-80
2023/03/03 02:26:29;;;;;;;1.95;1.85;;;;;;;2.44;70.88;101708.88;5153231;28;20064;-81
2023/03/03 02:28:59;;;;;;;2.35;2.25;;;;;;;2.39;71.69;101717.41;5145795;28;20039;-80
2023/03/03 02:31:30;;;;;;;3.35;3.08;;;;;;;2.45;70.41;101715.81;5151138;28;20126;-82
2023/03/03 02:34:01;;;;;;;4.63;4.25;;;;;;;2.32;72.51;101716.38;5137521;28;20536;-81
2023/03/03 02:36:35;;;;;;;3.03;2.67;;;;;;;2.33;72.15;101715.53;5152033;28;20051;-80
2023/03/03 02:39:14;;;;;;;4.95;4.53;;;;;;;2.35;72.35;101719.06;5134961;28;20544;-79
2023/03/03 02:42:11;;;;;;;4.25;3.88;;;;;;;2.54;70.71;101722.03;5145597;28;20941;-81
2023/03/03 02:44:42;;;;;;;3.38;3.10;;;;;;;2.30;72.55;101725.81;5150896;28;20030;-82
2023/03/03 02:47:12;;;;;;;7.30;3.08;;;;;;;2.58;70.06;101722.13;5147758;28;20065;-82
2023/03/03 02:49:44;;;;;;;1.58;1.52;;;;;;;2.44;71.09;101721.81;5148815;28;20025;-82
2023/03/03 02:52:16;;;;;;;4.97;4.60;;;;;;;2.33;71.75;101726.75;5140221;28;20031;-81
2023/03/03 02:54:47;;;;;;;6.20;2.25;;;;;;;2.44;71.30;101727.00;5148764;28;20057;-82
2023/03/03 02:57:17;;;;;;;3.33;3.00;;;;;;;2.35;71.42;101730.28;5143860;28;20043;-81
2023/03/03 02:59:48;;;;;;;3.10;2.85;;;;;;;2.41;70.09;101726.97;5135846;28;20077;-82
2023/03/03 03:02:18;;;;;;;2.80;2.25;;;;;;;2.55;70.51;101726.38;5137577;28;20035;-82
2023/03/03 03:04:49;;;;;;;2.47;2.28;;;;;;;2.50;69.98;101713.31;5136266;28;20030;-82
2023/03/03 03:07:19;;;;;;;5.47;5.10;;;;;;;2.60;69.50;101720.47;5136471;28;20886;-83
2023/03/03 03:09:49;;;;;;;5.03;4.60;;;;;;;2.65;70.08;101729.19;5154129;28;20034;-82
2023/03/03 03:12:20;;;;;;;3.30;3.05;;;;;;;2.65;69.98;101726.59;5137396;28;20569;-79
2023/03/03 03:14:51;;;;;;;1.23;1.23;;;;;;;2.67;69.43;101721.47;5136719;28;20109;-83
2023/03/03 03:17:21;;;;;;;2.30;2.20;;;;;;;2.50;70.99;101729.75;5131016;28;20058;-79
2023/03/03 03:19:51;;;;;;;2.38;2.28;;;;;;;2.68;69.23;101738.78;5158345;28;20030;-81
2023/03/03 03:22:22;;;;;;;2.28;2.15;;;;;;;2.64;68.97;101737.84;5133771;28;20034;-81
2023/03/03 03:24:52;;;;;;;2.65;2.17;;;;;;;2.49;70.16;101735.78;5139636;28;20054;-81
2023/03/03 03:27:23;;;;;;;2.97;2.78;;;;;;;2.39;71.56;101746.75;5146410;28;20416;-83
2023/03/03 03:29:53;;;;;;;4.63;4.32;;;;;;;2.34;72.29;101746.66;5153224;28;20045;-81
2023/03/03 03:32:24;;;;;;;7.20;3.92;;;;;;;2.32;72.48;101747.47;5128708;28;20034;-81
2023/03/03 03:34:54;;;;;;;3.30;2.40;;;;;;;2.52;69.75;101743.59;5137154;28;20038;-79
2023/03/03 03:37:25;;;;;;;2.97;2.72;;;;;;;2.22;72.48;101742.91;5149159;28;20038;-80
2023/03/03 03:39:55;;;;;;;3.20;3.00;;;;;;;2.12;73.43;101755.63;5137527;28;20034;-80
2023/03/03 03:42:26;;;;;;;1.40;1.35;;;;;;;2.20;72.61;101748.91;5165139;28;20026;-82
2023/03/03 03:44:56;;;;;;;2.25;2.15;;;;;;;2.10;73.00;101746.06;5167603;28;20038;-82
2023/03/03 03:47:26;;;;;;;1.55;1.48;;;;;;;2.09;74.32;101746.91;5152060;28;20576;-81
2023/03/03 03:49:57;;;;;;;2.92;2.75;;;;;;;1.95;74.49;101738.78;5140210;28;20462;-82
2023/03/03 03:52:27;;;;;;;2.67;2.55;;;;;;;2.01;74.65;101739.81;5172388;28;20022;-80
2023/03/03 03:54:58;;;;;;;3.40;3.10;;;;;;;1.91;75.06;101747.34;5151930;28;20060;-82
2023/03/03 03:57:28;;;;;;;3.35;3.15;;;;;;;2.15;72.02;101755.69;5142554;28;20612;-81
2023/03/03 03:59:59;;;;;;;3.80;2.65;;;;;;;2.26;72.07;101752.50;5152314;28;20329;-82
2023/03/03 04:02:29;;;;;;;1.80;1.70;;;;;;;2.19;72.70;101752.34;5173246;28;20030;-81
2023/03/03 04:05:00;;;;;;;3.70;3.17;;;;;;;2.17;72.85;101747.97;5138038;28;20763;-82
2023/03/03 04:07:30;;;;;;;3.15;2.90;;;;;;;2.14;72.99;101746.19;5133292;28;20035;-80
2023/03/03 04:10:01;;;;;;;3.83;3.47;;;;;;;2.05;73.50;101738.19;5152424;28;20047;-80
2023/03/03 04:12:37;;;;;;;9.13;4.60;;;;;;;2.00;74.08;101743.25;5154249;28;20018;-81
2023/03/03 04:15:10;;;;;;;6.75;3.28;;;;;;;2.06;73.75;101745.13;5137149;28;20025;-82
2023/03/03 04:17:41;;;;;;;3.85;3.50;;;;;;;2.17;72.34;101748.84;5131971;28;20038;-81
2023/03/03 04:20:15;;;;;;;6.10;4.43;;;;;;;2.14;73.30;101751.34;5134590;28;20038;-81
2023/03/03 04:22:45;;;;;;;3.05;2.85;;;;;;;2.24;71.37;101747.25;5145462;28;20061;-82
2023/03/03 04:25:16;;;;;;;2.63;2.33;;;;;;;1.94;75.52;101734.47;5153972;28;20497;-80
2023/03/03 04:27:47;;;;;;;4.03;3.83;;;;;;;2.34;71.25;101740.59;5153047;28;20034;-80
2023/03/03 04:30:18;;;;;;;2.63;2.42;;;;;;;2.31;71.80;101744.00;5150710;28;20061;-81
2023/03/03 04:32:48;;;;;;;3.63;3.30;;;;;;;2.34;72.17;101744.06;5137189;28;20430;-81
2023/03/03 04:35:18;;;;;;;4.32;4.03;;;;;;;2.14;74.15;101756.53;5162029;28;20042;-78
2023/03/03 04:37:49;;;;;;;2.15;1.92;;;;;;;2.30;72.22;101756.91;5137383;28;20609;-80
2023/03/03 04:40:19;;;;;;;4.45;3.45;;;;;;;2.22;73.14;101759.31;5154043;28;20062;-80
2023/03/03 04:42:50;;;;;;;2.55;2.42;;;;;;;2.29;72.53;101768.09;5139866;28;20045;-82
2023/03/03 04:45:21;;;;;;;1.98;1.55;;;;;;;2.33;72.22;101769.94;5127349;28;20078;-82
2023/03/03 04:47:51;;;;;;;4.78;4.15;;;;;;;2.41;71.31;101770.09;5147288;28;20058;-79
2023/03/03 04:50:22;;;;;;;3.83;3.50;;;;;;;2.45;71.80;101772.81;5131698;28;20174;-78
2023/03/03 04:52:53;;;;;;;1.50;1.40;;;;;;;2.27;72.44;101772.38;5132207;28;20026;-79
2023/03/03 04:55:23;;;;;;;1.50;1.25;;;;;;;2.30;71.62;101775.03;5148028;28;20038;-82
2023/03/03 04:57:54;;;;;;;2.40;2.20;;;;;;;2.11;73.73;101776.31;5142814;28;20050;-77
2023/03/03 05:00:25;;;;;;;3.47;3.28;;;;;;;1.97;74.64;101778.53;5165715;28;20113;-80
2023/03/03 05:02:55;;;;;;;6.05;4.10;;;;;;;2.16;72.49;101780.75;5146600;28;20034;-79
2023/03/03 05:05:26;;;;;;;8.00;4.25;;;;;;;1.77;74.97;101773.75;5147147;28;20065;-80
2023/03/03 05:07:56;;;;;;;6.00;3.55;;;;;;;1.72;76.00;101773.63;5152874;28;20026;-78
2023/03/03 05:10:27;;;;;;;3.58;3.38;;;;;;;1.95;74.44;101777.63;5153119;28;20697;-79
2023/03/03 05:12:57;;;;;;;2.13;2.03;;;;;;;2.02;73.44;101777.81;5134013;28;20089;-80
2023/03/03 05:15:28;;;;;;;3.60;3.30;;;;;;;1.91;73.90;101784.44;5130894;28;20062;-79
2023/03/03 05:17:58;;;;;;;4.22;1.95;;;;;;;1.97;73.79;101783.72;5149816;28;20033;-80
2023/03/03 05:20:29;;;;;;;0.40;0.40;;;;;;;1.83;74.48;101786.84;5132338;28;20146;-79
2023/03/03 05:23:00;;;;;;;1.50;1.33;;;;;;;1.97;73.14;101781.13;5163887;28;20034;-79
2023/03/03 05:25:30;;;;;;;3.53;2.10;;;;;;;2.17;71.15;101795.47;5133185;28;20506;-80
2023/03/03 05:28:01;;;;;;;1.30;1.25;;;;;;;2.13;72.06;101785.00;5134319;28;20026;-78
2023/03/03 05:30:31;;;;;;;4.40;2.72;;;;;;;2.00;73.52;101788.97;5138934;28;20035;-79
2023/03/03 05:33:03;;;;;;;2.25;2.10;;;;;;;2.08;72.80;101795.22;5148776;28;20037;-78
2023/03/03 05:35:34;;;;;;;1.90;1.80;;;;;;;2.25;71.77;101797.38;5147253;28;20109;-81
2023/03/03 05:38:04;;;;;;;1.98;1.85;;;;;;;2.26;71.69;101787.03;5136433;28;20050;-78
2023/03/03 05:40:36;;;;;;;3.25;3.05;;;;;;;2.29;70.92;101800.06;5145695;28;20043;-80
2023/03/03 05:43:06;;;;;;;0.75;0.75;;;;;;;1.88;74.48;101798.16;5143256;28;20041;-79
2023/03/03 05:45:37;;;;;;;0.80;0.80;;;;;;;2.11;71.62;101792.69;5139049;28;20031;-78
2023/03/03 05:48:09;;;;;;;2.55;2.45;;;;;;;2.26;72.14;101801.72;5169670;28;20053;-79
2023/03/03 05:50:39;;;;;;;1.67;1.63;;;;;;;2.01;73.84;101793.34;5168011;28;20041;-80
2023/03/03 05:53:09;;;;;;;0.88;0.88;;;;;;;2.09;73.10;101799.56;5158904;28;20034;-80
2023/03/03 05:55:40;;;;;;;5.15;3.38;;;;;;;2.10;72.24;101792.66;5151532;28;20038;-80
2023/03/03 05:58:11;;;;;;;1.05;1.05;;;;;;;2.27;71.70;101798.28;5159211;28;20034;-78
2023/03/03 06:00:41;;;;;;;1.35;1.33;;;;;;;2.19;72.14;101796.34;5145605;28;20035;-80
2023/03/03 06:03:12;;;;;;;2.58;2.47;;;;;;;2.24;71.65;101798.19;5136820;28;20043;-80
2023/03/03 06:05:42;;;;;;;3.50;3.20;;;;;;;2.08;73.12;101808.19;5135708;28;20042;-81
2023/03/03 06:08:12;;;;;;;3.10;2.60;;;;;;;2.05;72.75;101802.91;5148049;28;20030;-78
2023/03/03 06:10:43;;;;;;;1.33;1.33;;;;;;;1.95;73.48;101804.41;5151491;28;20955;-79
2023/03/03 06:13:13;;;;;;;4.22;3.10;;;;;;;2.12;72.73;101804.81;5139038;28;20049;-81
2023/03/03 06:15:44;;;;;;;0.63;0.63;;;;;;;2.24;70.92;101803.38;5135324;28;20046;-81
2023/03/03 06:18:14;;;;;;;3.65;2.20;;;;;;;2.11;73.15;101800.47;5145226;28;20050;-80
2023/03/03 06:20:50;;;;;;;2.15;2.00;;;;;;;2.28;70.44;101807.78;5139009;28;20057;-79
2023/03/03 06:23:21;;;;;;;3.15;2.92;;;;;;;2.18;71.87;101819.63;5153018;28;20017;-78
2023/03/03 06:25:52;;;;;;;1.88;1.77;;;;;;;1.74;75.14;101815.06;5151097;28;20046;-80
2023/03/03 06:28:23;;;;;;;4.00;2.80;;;;;;;2.07;72.32;101815.91;5135669;28;20352;-80
2023/03/03 06:30:55;;;;;;;1.98;1.88;;;;;;;2.24;71.25;101824.97;5149556;28;20045;-80
2023/03/03 06:33:25;;;;;;;2.60;2.05;;;;;;;2.34;70.74;101819.19;5146321;28;20023;-79
2023/03/03 06:35:56;;;;;;;1.50;1.42;;;;;;;2.40;70.06;101831.41;5133582;28;20035;-79
2023/03/03 06:38:26;;;;;;;2.95;2.47;;;;;;;2.47;70.05;101838.50;5130529;28;20709;-80
2023/03/03 06:40:57;;;;;;;2.00;1.60;;;;;;;2.50;70.30;101835.97;5142361;28;20054;-80
2023/03/03 06:43:27;;;;;;;2.17;2.08;;;;;;;2.18;71.65;101842.94;5161355;28;20038;-79
2023/03/03 06:45:58;;;;;;;1.10;1.10;;;;;;;1.89;73.23;101849.09;5128649;28;20038;-80
2023/03/03 06:48:30;;;;;;;3.30;2.58;;;;;;;1.84;74.66;101845.53;5152511;28;20034;-80
2023/03/03 06:51:10;;;;;;;3.58;3.28;;;;;;;2.03;72.60;101853.75;5148054;28;20038;-81
2023/03/03 06:53:41;;;;;;;5.18;2.38;;;;;;;2.10;72.60;101849.63;5137763;28;20030;-82
2023/03/03 06:56:11;;;;;;;1.65;1.58;;;;;;;2.23;71.66;101859.50;5131163;28;20034;-81
2023/03/03 06:58:42;;;;;;;4.13;3.03;;;;;;;2.31;70.75;101859.66;5138078;28;20035;-82
2023/03/03 07:01:16;;;;;;;1.65;1.55;;;;;;;2.12;72.96;101874.72;5131745;28;20633;-80
2023/03/03 07:03:46;;;;;;;2.60;2.03;;;;;;;1.90;73.60;101870.72;5141106;28;20033;-80
2023/03/03 07:06:25;;;;;;;1.73;1.63;;;;;;;2.18;72.39;101876.59;5154888;28;20066;-80
2023/03/03 07:08:56;;;;;;;1.35;1.27;;;;;;;2.06;72.74;101871.97;5138019;28;20545;-80
2023/03/03 07:11:27;;;;;;;4.13;3.83;;;;;;;1.81;74.08;101876.50;5127567;28;20050;-81
2023/03/03 07:13:57;;;;;;;2.03;1.92;;;;;;;1.67;74.58;101883.00;5169781;28;20043;-81
2023/03/03 07:16:28;;;;;;;5.50;3.15;;;;;;;1.63;75.10;101881.13;5152206;28;20093;-81
2023/03/03 07:19:02;;;;;;;3.83;3.00;;;;;;;1.75;73.89;101876.34;5139547;28;20102;-80
2023/03/03 07:21:36;;;;;;;1.40;1.40;;;;;;;1.97;71.99;101871.72;5154233;28;20038;-81
2023/03/03 07:24:27;;;;;;;1.10;1.10;;;;;;;1.76;73.43;101883.25;5135662;28;20015;-81
2023/03/03 07:27:12;;;;;;;1.38;1.38;;;;;;;1.78;73.75;101881.56;5151881;28;20034;-81
2023/03/03 07:29:46;;;;;;;1.83;1.73;;;;;;;1.82;73.63;101891.19;5159470;28;20798;-79
2023/03/03 07:32:29;;;;;;;3.85;2.95;;;;;;;2.01;71.69;101883.94;5143014;28;20043;-79
2023/03/03 07:35:00;;;;;;;3.30;3.00;;;;;;;2.10;71.04;101883.28;5156080;28;20110;-79
2023/03/03 07:37:37;;;;;;;2.10;2.00;;;;;;;1.95;72.63;101891.50;5139754;28;20058;-80
2023/03/03 07:40:32;;;;;;;4.25;2.38;;;;;;;1.85;73.35;101891.28;5139566;28;20114;-81
2023/03/03 07:43:29;;;;;;;1.67;1.58;;;;;;;1.95;73.07;101899.28;5121323;28;20462;-81
2023/03/03 07:46:08;;;;;;;0.57;0.57;;;;;;;1.95;72.02;101904.44;5136052;28;20073;-80
2023/03/03 07:48:41;;;;;;;2.00;1.90;;;;;;;2.18;71.20;101911.16;5147081;28;20062;-80
2023/03/03 07:51:46;;;;;;;1.90;1.80;;;;;;;2.09;71.37;101915.19;5131475;28;20038;-81
2023/03/03 07:54:27;;;;;;;1.45;1.45;;;;;;;2.25;69.90;101907.00;5153751;28;20453;-81
2023/03/03 07:57:11;;;;;;;0.88;0.88;;;;;;;1.79;72.85;101911.78;5161523;28;20047;-80
2023/03/03 07:59:47;;;;;;;0.85;0.85;;;;;;;2.07;71.36;101916.88;5147894;28;20066;-82
2023/03/03 08:02:44;;;;;;;2.58;2.47;;;;;;;1.98;71.47;101914.91;5143646;28;20055;-79
2023/03/03 08:05:26;;;;;;;1.65;1.58;;;;;;;2.22;70.71;101925.06;5154214;28;20571;-81
2023/03/03 08:08:08;;;;;;;4.18;3.38;;;;;;;2.13;71.02;101920.50;5161748;28;20037;-82
2023/03/03 08:10:59;;;;;;;1.88;1.17;;;;;;;1.85;72.55;101926.63;5164053;28;20051;-82
2023/03/03 08:13:32;;;;;;;0.60;0.60;;;;;;;2.13;70.79;101925.69;5148596;28;20069;-82
2023/03/03 08:16:25;;;;;;;2.03;1.92;;;;;;;2.10;71.40;101929.91;5154305;28;20604;-83
2023/03/03 08:19:00;;;;;;;0.43;0.43;;;;;;;2.09;71.82;101938.50;5142958;28;20053;-82
2023/03/03 08:21:32;;;;;;;23.08;2.45;;;;;;;1.97;72.57;101933.84;5155825;28;20045;-80
2023/03/03 08:24:03;;;;;;;4.53;1.77;;;;;;;1.98;72.43;101938.19;5143198;28;20035;-82
2023/03/03 08:26:33;;;;;;;0.52;0.52;;;;;;;1.84;73.88;101937.81;5140137;28;20045;-80
2023/03/03 08:29:04;;;;;;;3.63;3.25;;;;;;;1.82;73.33;101940.38;5149462;28;20121;-82
2023/03/03 08:31:34;;;;;;;1.38;1.38;;;;;;;1.84;73.63;101955.94;5160300;28;20642;-81
2023/03/03 08:34:04;;;;;;;0.50;0.50;;;;;;;1.78;73.81;101950.56;5129553;28;20031;-82
2023/03/03 08:36:35;;;;;;;1.17;1.13;;;;;;;1.88;73.21;101945.69;5132520;28;20077;-80
2023/03/03 08:39:05;;;;;;;1.23;1.08;;;;;;;2.08;71.64;101948.00;5143851;28;20038;-82
2023/03/03 08:41:37;;;;;;;0.52;0.52;;;;;;;2.23;70.67;101954.41;5142248;28;20097;-83
2023/03/03 08:44:09;;;;;;;2.35;2.20;;;;;;;2.02;72.30;101953.00;5151249;28;20048;-80
2023/03/03 08:46:40;;;;;;;0.63;0.63;;;;;;;2.15;72.01;101960.25;5161981;28;20069;-82
2023/03/03 08:49:10;;;;;;;13.05;2.30;;;;;;;2.14;72.52;101961.09;5147701;28;20701;-80
2023/03/03 08:51:41;;;;;;;2.45;2.35;;;;;;;1.93;72.77;101963.97;5130258;28;20038;-83
2023/03/03 08:54:12;;;;;;;2.08;1.85;;;;;;;1.96;72.73;101970.94;5134770;28;20026;-81
2023/03/03 08:56:42;;;;;;;0.63;0.63;;;;;;;2.18;71.51;101969.81;5128080;28;20050;-81
2023/03/03 08:59:13;;;;;;;2.63;2.42;;;;;;;1.72;73.51;101969.38;5136411;28;20058;-81
2023/03/03 09:01:44;;;;;;;2.15;2.05;;;;;;;1.99;72.62;101971.88;5144106;28;20043;-80
2023/03/03 09:04:14;;;;;;;1.05;1.05;;;;;;;2.26;71.29;101972.63;5154263;28;20037;-80
2023/03/03 09:06:45;;;;;;;2.03;1.92;;;;;;;2.23;70.98;101973.44;5144949;28;20054;-81
2023/03/03 09:09:15;;;;;;;3.08;2.88;;;;;;;2.31;70.59;101981.41;5136412;28;20069;-81
2023/03/03 09:11:46;;;;;;;0.93;0.93;;;;;;;2.26;71.20;101988.19;5145672;28;20620;-78
2023/03/03 09:14:17;;;;;;;2.38;2.17;;;;;;;2.42;70.74;101985.16;5160864;28;20038;-80
2023/03/03 09:16:53;;;;;;;2.60;2.40;;;;;;;2.32;70.99;101984.03;5142764;28;20046;-79
2023/03/03 09:19:31;;;;;;;1.60;1.50;;;;;;;2.50;70.21;101983.66;5137154;28;20648;-81
2023/03/03 09:22:17;;;;;;;2.38;1.77;;;;;;;2.47;70.29;101986.16;5142862;28;20054;-80
2023/03/03 09:24:49;;;;;;;3.35;2.45;;;;;;;2.39;71.11;101985.06;5156032;28;20378;-81
2023/03/03 09:27:36;;;;;;;2.35;1.50;;;;;;;2.55;69.81;101988.97;5141845;28;20044;-80
2023/03/03 09:30:33;;;;;;;1.75;1.65;;;;;;;2.54;70.23;101988.91;5145664;28;20033;-80
2023/03/03 09:33:42;;;;;;;1.58;1.48;;;;;;;2.37;70.62;101989.31;5131340;28;20422;-79
2023/03/03 09:36:24;;;;;;;1.30;1.20;;;;;;;2.42;70.77;101985.16;5143101;28;20056;-81
2023/03/03 09:38:56;;;;;;;2.30;2.20;;;;;;;2.50;70.13;101994.03;5148696;28;20134;-80
2023/03/03 09:41:36;;;;;;;2.78;2.58;;;;;;;2.46;71.24;101981.81;5133288;28;20121;-78
2023/03/03 09:44:15;;;;;;;6.47;2.55;;;;;;;2.60;70.62;101997.72;5147035;28;20667;-78
2023/03/03 09:47:21;;;;;;;7.60;2.05;;;;;;;2.56;70.79;101995.00;5142859;28;20062;-77
2023/03/03 09:50:06;;;;;;;2.75;1.33;;;;;;;2.40;71.60;102004.97;5137996;28;20058;-79
2023/03/03 09:53:02;;;;;;;2.80;2.60;;;;;;;2.45;71.92;102005.09;5139049;28;20089;-79
2023/03/03 09:55:41;;;;;;;0.77;0.77;;;;;;;2.45;71.56;102005.09;5109217;28;21175;-79
2023/03/03 09:58:21;;;;;;;4.75;2.65;;;;;;;2.57;70.93;102004.53;5145144;28;20097;-81
2023/03/03 10:01:30;;;;;;;2.67;1.48;;;;;;;2.75;69.84;102017.09;5141437;28;20046;-79
2023/03/03 10:04:39;;;;;;;4.57;2.53;;;;;;;2.71;70.36;102007.50;5149409;28;20167;-81
2023/03/03 10:07:15;;;;;;;2.55;2.45;;;;;;;2.48;71.54;102011.25;5141360;28;20066;-78
2023/03/03 10:09:58;;;;;;;3.22;2.63;;;;;;;2.72;70.65;102007.53;5149461;28;20125;-78
2023/03/03 10:12:53;;;;;;;1.58;1.48;;;;;;;2.49;71.84;102010.41;5146086;28;20046;-78
2023/03/03 10:15:29;;;;;;;4.75;4.03;;;;;;;2.34;71.65;102021.22;5150132;28;20042;-81
2023/03/03 10:18:32;;;;;;;2.03;1.92;;;;;;;2.34;71.78;102012.56;5153156;28;20513;-79
2023/03/03 10:21:16;;;;;;;3.22;2.92;;;;;;;2.58;70.67;102004.56;5143938;28;20504;-79
2023/03/03 10:23:53;;;;;;;2.47;2.38;;;;;;;2.61;71.10;102009.84;5150071;28;20797;-79
2023/03/03 10:26:57;;;;;;;4.45;4.03;;;;;;;2.88;69.90;102013.09;5144413;28;20039;-79
2023/03/03 10:29:37;;;;;;;;;;;;;;;2.73;70.82;102013.63;5148767;28;20015;-80
2023/03/03 10:32:36;;;;;;;3.75;2.60;;;;;;;2.86;69.66;102018.25;5162404;28;19945;-79
2023/03/03 10:35:13;;;;;;;0.70;0.70;;;;;;;2.88;69.35;102014.00;5155760;28;20046;-81
2023/03/03 10:38:13;;;;;;;3.70;2.33;;;;;;;2.92;69.43;102012.38;5151207;28;20410;-81
2023/03/03 10:40:52;;;;;;;1.65;1.55;;;;;;;2.63;70.21;102020.25;5148047;28;20039;-82
2023/03/03 10:43:37;;;;;;;3.28;3.03;;;;;;;2.75;70.17;102019.69;5137115;28;20088;-80
2023/03/03 10:46:36;;;;;;;2.92;2.72;;;;;;;2.89;69.30;102012.28;5132391;28;20047;-78
2023/03/03 10:49:13;;;;;;;5.93;3.13;;;;;;;3.02;69.56;102019.50;5142317;28;20516;-80
2023/03/03 10:51:50;;;;;;;2.08;1.88;;;;;;;3.09;69.04;102011.06;5125211;28;20097;-78
2023/03/03 10:54:54;;;;;;;2.20;2.00;;;;;;;3.11;68.72;102009.38;5147910;28;20026;-79
2023/03/03 10:57:24;;;;;;;;;;;;;;;3.13;68.58;102017.22;5145406;28;20041;-78
2023/03/03 11:00:08;;;;;;;2.28;2.10;;;;;;;3.29;68.21;102005.47;5140429;28;19940;-81
2023/03/03 11:02:45;;;;;;;;;;;;;;;3.35;68.16;102007.34;5145169;28;20038;-78
2023/03/03 11:05:27;;;;;;;1.17;1.17;;;;;;;3.21;69.06;102015.69;5127386;28;20297;-78
2023/03/03 11:08:13;;;;;;;3.00;2.83;;;;;;;3.28;68.25;102016.69;5147819;28;20044;-81
2023/03/03 11:10:53;;;;;;;3.67;3.47;;;;;;;3.25;68.45;102016.63;5115064;28;20034;-79
2023/03/03 11:13:40;;;;;;;5.05;2.90;;;;;;;3.20;68.13;102018.22;5140632;28;20027;-79
2023/03/03 11:16:33;;;;;;;1.75;1.70;;;;;;;3.21;68.66;102020.88;5147268;28;20058;-80
2023/03/03 11:19:31;;;;;;;7.78;2.42;;;;;;;3.36;68.12;102020.34;5149758;28;20529;-79
2023/03/03 11:22:32;;;;;;;3.45;3.20;;;;;;;3.35;67.77;102021.19;5150115;28;20135;-80
2023/03/03 11:25:33;;;;;;;2.22;2.13;;;;;;;3.29;68.42;102015.84;5163123;28;20062;-79
2023/03/03 11:28:58;;;;;;;2.88;2.67;;;;;;;3.50;67.30;102006.84;5127649;28;20040;-81
2023/03/03 11:31:47;;;;;;;3.30;3.10;;;;;;;3.57;66.77;102009.56;5142720;28;20047;-82
2023/03/03 11:34:20;;;;;;;2.85;2.40;;;;;;;3.58;67.02;102011.34;5136458;28;20027;-81
2023/03/03 11:36:56;;;;;;;2.45;2.15;;;;;;;3.52;67.95;102010.31;5144065;28;20454;-81
2023/03/03 11:39:27;;;;;;;2.75;2.58;;;;;;;3.45;67.83;102007.59;5133499;28;20121;-81
2023/03/03 11:42:22;;;;;;;10.80;2.97;;;;;;;3.55;66.86;102002.59;5159838;28;20150;-81
2023/03/03 11:44:59;;;;;;;4.22;3.60;;;;;;;3.62;67.21;102007.97;5145274;28;20046;-81
2023/03/03 11:47:54;;;;;;;4.03;3.67;;;;;;;3.38;68.64;102005.69;5122964;28;20464;-79
2023/03/03 11:50:34;;;;;;;1.08;1.08;;;;;;;3.53;67.78;102000.00;5159191;28;20023;-79
2023/03/03 11:53:32;;;;;;;5.32;3.15;;;;;;;3.45;67.64;102005.00;5155776;28;20062;-79
2023/03/03 11:56:18;;;;;;;2.38;2.22;;;;;;;3.56;67.58;101997.44;5128956;28;20054;-81
2023/03/03 11:59:12;;;;;;;1.90;1.80;;;;;;;3.65;67.77;101991.59;5159657;28;20034;-82
2023/03/03 12:01:43;;;;;;;2.72;2.33;;;;;;;3.75;67.61;101993.56;5140807;28;20047;-81
2023/03/03 12:04:43;;;;;;;4.55;3.25;;;;;;;3.62;67.31;101994.09;5157728;28;20038;-79
2023/03/03 12:07:40;;;;;;;3.72;3.42;;;;;;;3.76;67.24;101994.41;5168566;28;20098;-80
2023/03/03 12:10:20;;;;;;;0.93;0.93;;;;;;;3.62;68.05;101984.63;5135806;28;20675;-80
2023/03/03 12:13:02;;;;;;;1.85;1.23;;;;;;;3.66;66.90;101988.16;5145587;28;20084;-80
2023/03/03 12:15:44;;;;;;;14.00;3.97;;;;;;;3.65;67.84;101983.81;5149578;28;20567;-80